OIKQ  Dayrestan  Airport

Iran

Add Bookmark
ICAO OIKQ
Type Airport
Status Operational
Latitude
26° 45' 16" N
26.754601
Longitude
55° 54' 8" E
55.902401
Local (GMT +4.5 ) UTC
May 27, 2016 12:55 pm May 27, 2016 08:25
Sunrise-Sunset Local UTC
Begin Civil Twilight 05:26 am 00:56
Sunrise 05:52 am 01:22
Sunset 07:34 pm 15:04
End Civil Twilight 08:00 pm 15:30
VFR
VFR
MVFR
MVFR
IFR
IFR
LIFR
LIFR
Unknown
Unavailable

Current Weather

METAR Observed MVFR
OIKQ 270800Z 22016KT 7000 FEW020 30/25 Q1005 Fri, May 27, 2016 @ 08:00 UTC
(25 Minutes ago)
Marginal Visual Flight Rules
Wind Visibility Clouds Conditions
220° at 16 knots (30 kph) 7,001 m
  • Few at 2,000 ft AGL
  • No significant weather
Temperatures Readings Precipitation
Current Temp
30°C
86°F
Dewpoint
25°C
77°F
Heat Index
36°C
97°
Humidity 75%
Altimeter 29.68" Hg
Sea Level Pressure 1,005 mb
Field Elevation
12 m
39 ft
None Recorded

Additional weather within a 92.6km radius of OIKQ

Map ICAO Location
OIKB 69.8km NE (042°)
VFR
VFR
MVFR
MVFR
IFR
IFR
LIFR
LIFR
Unknown
Unavailable
-
-

CheckWX.com is intended as a tool to help pilots better visualize weather data. It is not intended as a substitute for an official weather briefing obtained from a Flight Service Station. CheckWX.com does not meet the FAA requirements for an official pre-flight weather briefing. Therefore, it's important that pilots still call and obtain an official FSS pre-flight weather briefing.

© 2007-2016 CheckWX.com
08:25:01 UTC